Time;durP1;ratioP1;P1;durP2;ratioP2;P2;SDS_P1;SDS_P2;PMS_P1;PMS_P2;Temp;Humidity;BMP_temperature;BMP_pressure;BME280_temperature;BME280_humidity;BME280_pressure;Samples;Min_cycle;Max_cycle;Signal;HPM_P1;HPM_P2
2023/04/14 00:00:40;;;;;;;4.67;3.17;;;;;;;10.99;nan;-24123.97;4992432;28;20207;-69
2023/04/14 00:03:06;;;;;;;4.33;2.67;;;;;;;11.08;nan;-24126.50;4995256;28;20180;-67
2023/04/14 00:05:32;;;;;;;9.97;3.30;;;;;;;10.73;nan;-24116.78;4995394;28;20224;-68
2023/04/14 00:07:58;;;;;;;3.87;2.90;;;;;;;11.08;nan;-24126.50;4996117;28;20235;-69
2023/04/14 00:10:25;;;;;;;5.17;3.00;;;;;;;10.80;nan;-24118.75;4995961;28;20172;-66
2023/04/14 00:12:50;;;;;;;6.27;3.97;;;;;;;10.85;nan;-24120.16;4995266;28;20215;-67
2023/04/14 00:15:16;;;;;;;4.43;3.17;;;;;;;10.43;nan;-24108.47;4995685;28;20181;-68
2023/04/14 00:17:41;;;;;;;6.03;3.17;;;;;;;10.46;nan;-24109.31;4995175;28;20259;-68
2023/04/14 00:20:07;;;;;;;7.90;3.63;;;;;;;10.74;nan;-24117.06;4995342;28;20558;-67
2023/04/14 00:22:33;;;;;;;6.80;4.00;;;;;;;10.59;nan;-24112.97;4995147;28;20177;-67
2023/04/14 00:25:00;;;;;;;6.50;3.80;;;;;;;10.47;nan;-24109.44;4995256;28;20196;-67
2023/04/14 00:27:25;;;;;;;4.77;3.03;;;;;;;10.49;nan;-24110.16;4995177;28;20268;-68
2023/04/14 00:29:51;;;;;;;4.30;3.03;;;;;;;10.37;nan;-24106.75;4995257;28;20652;-69
2023/04/14 00:32:16;;;;;;;8.37;3.43;;;;;;;10.35;nan;-24106.06;4995221;28;20223;-68
2023/04/14 00:34:42;;;;;;;5.10;3.40;;;;;;;10.57;nan;-24112.25;4995547;28;20176;-67
2023/04/14 00:37:08;;;;;;;4.03;3.00;;;;;;;10.64;nan;-24114.38;4995434;28;20169;-67
2023/04/14 00:39:33;;;;;;;6.00;3.30;;;;;;;10.39;nan;-24107.31;4994264;28;20266;-67
2023/04/14 00:42:02;;;;;;;6.43;3.33;;;;;;;10.34;nan;-24105.91;4994979;28;20181;-69
2023/04/14 00:44:27;;;;;;;6.80;4.07;;;;;;;10.53;nan;-24111.13;4995003;28;20214;-68
2023/04/14 00:46:53;;;;;;;4.50;3.23;;;;;;;10.39;nan;-24107.19;4994526;28;20302;-68
2023/04/14 00:49:19;;;;;;;4.80;2.83;;;;;;;10.31;nan;-24104.94;4994345;28;20177;-69
2023/04/14 00:51:46;;;;;;;5.10;2.90;;;;;;;10.73;nan;-24116.63;4994958;28;20216;-68
2023/04/14 00:54:14;;;;;;;5.80;3.23;;;;;;;10.78;nan;-24118.19;4994639;28;20212;-67
2023/04/14 00:56:39;;;;;;;5.57;3.33;;;;;;;10.71;nan;-24116.06;4994619;28;20831;-67
2023/04/14 00:59:06;;;;;;;8.77;3.27;;;;;;;10.80;nan;-24118.63;4998747;28;20212;-67
2023/04/14 01:01:35;;;;;;;3.93;2.77;;;;;;;10.68;nan;-24115.38;4994640;28;20192;-67
2023/04/14 01:04:01;;;;;;;4.47;2.83;;;;;;;10.53;nan;-24111.13;4994368;28;20177;-68
2023/04/14 01:06:27;;;;;;;5.10;3.00;;;;;;;10.39;nan;-24107.31;4995019;28;20251;-66
2023/04/14 01:08:53;;;;;;;3.93;3.30;;;;;;;10.69;nan;-24115.50;4994473;28;20239;-66
2023/04/14 01:11:43;;;;;;;5.10;3.13;;;;;;;10.72;nan;-24116.50;4994485;28;20744;-67
2023/04/14 01:14:49;;;;;;;5.87;2.97;;;;;;;10.68;nan;-24115.38;4991188;28;20252;-68
2023/04/14 01:17:33;;;;;;;4.30;3.17;;;;;;;10.67;nan;-24115.09;4973602;28;20211;-68
2023/04/14 01:20:17;;;;;;;5.23;3.40;;;;;;;10.66;nan;-24114.66;4994000;28;20164;-68
2023/04/14 01:22:57;;;;;;;5.93;3.10;;;;;;;10.37;nan;-24106.75;4993584;28;20256;-67
2023/04/14 01:25:25;;;;;;;4.30;3.00;;;;;;;10.65;nan;-24114.53;4994131;28;20172;-67
2023/04/14 01:27:54;;;;;;;11.10;3.23;;;;;;;10.61;nan;-24113.41;4993605;28;20670;-67
2023/04/14 01:30:46;;;;;;;3.57;2.50;;;;;;;10.61;nan;-24113.41;4993572;28;20191;-66
2023/04/14 01:33:15;;;;;;;5.73;2.93;;;;;;;10.66;nan;-24114.66;4992455;28;20192;-66
2023/04/14 01:35:55;;;;;;;5.33;3.17;;;;;;;10.36;nan;-24106.47;4993934;28;20164;-67
2023/04/14 01:38:26;;;;;;;5.40;3.57;;;;;;;10.50;nan;-24110.28;4993931;28;20200;-68
2023/04/14 01:40:55;;;;;;;5.77;2.80;;;;;;;10.31;nan;-24105.06;4993765;28;20554;-69
2023/04/14 01:43:27;;;;;;;7.27;3.47;;;;;;;10.32;nan;-24105.22;4993790;28;20565;-68
2023/04/14 01:45:56;;;;;;;4.82;3.05;;;;;;;10.58;nan;-24112.69;4993616;28;20169;-68
2023/04/14 01:48:24;;;;;;;4.23;3.00;;;;;;;10.34;nan;-24105.91;4994024;28;20290;-67
2023/04/14 01:50:50;;;;;;;5.23;3.13;;;;;;;10.43;nan;-24108.47;4993868;28;20239;-68
2023/04/14 01:53:18;;;;;;;3.80;2.77;;;;;;;10.71;nan;-24116.22;4993488;28;20208;-67
2023/04/14 01:55:46;;;;;;;3.57;2.90;;;;;;;11.04;nan;-24125.53;4993924;28;20204;-69
2023/04/14 01:58:13;;;;;;;4.77;3.37;;;;;;;10.52;nan;-24110.84;4993354;28;20175;-67
2023/04/14 02:00:40;;;;;;;4.03;2.77;;;;;;;10.61;nan;-24113.53;4997689;28;20177;-68
2023/04/14 02:03:06;;;;;;;6.93;3.23;;;;;;;10.44;nan;-24108.59;4985193;28;20200;-67
2023/04/14 02:05:37;;;;;;;4.30;3.00;;;;;;;10.46;nan;-24109.31;4978817;28;20185;-68
2023/04/14 02:08:05;;;;;;;4.05;2.75;;;;;;;10.18;nan;-24101.41;4993509;28;20191;-68
2023/04/14 02:10:31;;;;;;;5.63;2.83;;;;;;;10.51;nan;-24110.56;4993312;28;20188;-68
2023/04/14 02:12:58;;;;;;;5.73;3.13;;;;;;;10.51;nan;-24110.72;4993206;28;20192;-67
2023/04/14 02:15:27;;;;;;;3.77;2.83;;;;;;;10.54;nan;-24111.56;4993425;28;20175;-66
2023/04/14 02:17:55;;;;;;;4.63;2.77;;;;;;;10.50;nan;-24110.28;4993491;28;20632;-67
2023/04/14 02:20:21;;;;;;;18.67;3.30;;;;;;;10.50;nan;-24110.44;4993279;28;20169;-68
2023/04/14 02:22:47;;;;;;;17.20;2.73;;;;;;;10.61;nan;-24113.41;4992878;28;20735;-68
2023/04/14 02:25:12;;;;;;;6.40;3.20;;;;;;;10.21;nan;-24102.25;4992591;28;20176;-66
2023/04/14 02:28:14;;;;;;;7.87;3.77;;;;;;;10.58;nan;-24112.56;4993538;28;20165;-66
2023/04/14 02:30:43;;;;;;;13.50;2.93;;;;;;;10.63;nan;-24114.09;4971764;28;20580;-67
2023/04/14 02:33:12;;;;;;;4.90;3.20;;;;;;;10.02;nan;-24097.03;4992632;28;20251;-68
2023/04/14 02:36:00;;;;;;;3.67;2.37;;;;;;;10.11;nan;-24099.56;4993796;28;20503;-68
2023/04/14 02:38:35;;;;;;;8.90;3.07;;;;;;;10.23;nan;-24102.66;4993129;28;20176;-68
2023/04/14 02:41:10;;;;;;;5.77;2.57;;;;;;;10.70;nan;-24115.78;4992553;28;20178;-71
2023/04/14 02:43:43;;;;;;;3.63;2.17;;;;;;;10.41;nan;-24107.75;4993372;28;20165;-68
2023/04/14 02:46:13;;;;;;;3.47;2.03;;;;;;;10.32;nan;-24105.34;4992720;28;20184;-68
2023/04/14 02:48:41;;;;;;;4.33;2.13;;;;;;;10.23;nan;-24102.66;4993670;28;20587;-67
2023/04/14 02:51:10;;;;;;;2.27;1.90;;;;;;;10.16;nan;-24100.84;4992744;28;20203;-68
2023/04/14 02:53:35;;;;;;;2.20;2.00;;;;;;;10.28;nan;-24104.22;4992391;28;20208;-68
2023/04/14 02:56:02;;;;;;;1.67;1.57;;;;;;;9.95;nan;-24095.03;4992504;28;20197;-68
2023/04/14 02:58:28;;;;;;;2.20;2.00;;;;;;;9.84;nan;-24091.78;4992263;28;20180;-68
2023/04/14 03:00:56;;;;;;;2.40;2.03;;;;;;;9.80;nan;-24090.81;4992563;28;20191;-68
2023/04/14 03:03:23;;;;;;;2.10;1.90;;;;;;;9.55;nan;-24083.88;4978119;28;20189;-68
2023/04/14 03:05:49;;;;;;;2.20;2.00;;;;;;;9.78;nan;-24090.25;4981063;28;20213;-68
2023/04/14 03:08:16;;;;;;;1.80;1.63;;;;;;;9.44;nan;-24080.78;4987066;28;20188;-67
2023/04/14 03:10:46;;;;;;;2.80;2.20;;;;;;;9.72;nan;-24088.69;4992452;28;20239;-66
2023/04/14 03:13:14;;;;;;;2.97;2.50;;;;;;;9.29;nan;-24076.66;4973250;28;20253;-66
2023/04/14 03:15:40;;;;;;;3.40;2.20;;;;;;;9.65;nan;-24086.56;4971793;28;20185;-67
2023/04/14 03:18:07;;;;;;;2.23;1.93;;;;;;;9.55;nan;-24083.88;4973242;28;20166;-66
2023/04/14 03:20:34;;;;;;;2.00;1.80;;;;;;;9.74;nan;-24089.09;4972967;28;20165;-66
2023/04/14 03:23:03;;;;;;;2.73;2.10;;;;;;;9.66;nan;-24086.84;4972911;28;20186;-66
2023/04/14 03:25:31;;;;;;;2.97;2.03;;;;;;;9.54;nan;-24083.59;4972547;28;20184;-66
2023/04/14 03:28:02;;;;;;;3.70;2.00;;;;;;;9.20;nan;-24074.00;4973098;28;20246;-66
2023/04/14 03:30:30;;;;;;;2.73;2.07;;;;;;;9.47;nan;-24081.47;4972507;28;20180;-68
2023/04/14 03:33:01;;;;;;;17.90;1.90;;;;;;;9.40;nan;-24079.63;4973011;28;20296;-68
2023/04/14 03:35:27;;;;;;;3.60;2.37;;;;;;;9.32;nan;-24077.38;4988060;28;20209;-67
2023/04/14 03:37:58;;;;;;;2.97;1.90;;;;;;;9.35;nan;-24078.22;4975480;28;20653;-66
2023/04/14 03:40:29;;;;;;;7.80;2.40;;;;;;;8.79;nan;-24062.53;4976229;28;20205;-67
2023/04/14 03:42:57;;;;;;;2.73;2.03;;;;;;;8.95;nan;-24067.06;4976598;28;20153;-67
2023/04/14 03:45:25;;;;;;;2.03;1.83;;;;;;;9.18;nan;-24073.56;4976527;28;20670;-68
2023/04/14 03:47:56;;;;;;;2.53;2.20;;;;;;;9.24;nan;-24075.25;4976789;28;20228;-66
2023/04/14 03:50:25;;;;;;;2.53;1.77;;;;;;;9.09;nan;-24070.88;4991379;28;20229;-67
2023/04/14 03:52:52;;;;;;;9.37;2.00;;;;;;;9.16;nan;-24072.84;4976025;28;20220;-67
2023/04/14 03:55:18;;;;;;;2.17;1.90;;;;;;;9.44;nan;-24080.78;4976541;28;20260;-67
2023/04/14 03:57:45;;;;;;;3.20;2.10;;;;;;;9.57;nan;-24084.31;4976043;28;20173;-67
2023/04/14 04:00:12;;;;;;;2.53;2.07;;;;;;;9.41;nan;-24079.78;4976099;28;20184;-68
2023/04/14 04:02:39;;;;;;;3.07;2.00;;;;;;;9.72;nan;-24088.69;4980868;28;20610;-67
2023/04/14 04:05:06;;;;;;;1.73;1.63;;;;;;;9.45;nan;-24081.06;4975884;28;20200;-70
2023/04/14 04:07:32;;;;;;;3.03;2.00;;;;;;;9.88;nan;-24092.91;4976187;28;20220;-69
2023/04/14 04:09:58;;;;;;;2.00;1.80;;;;;;;9.88;nan;-24092.91;4976001;28;20263;-69
2023/04/14 04:12:25;;;;;;;2.07;1.67;;;;;;;10.14;nan;-24100.41;4976096;28;20205;-70
2023/04/14 04:14:50;;;;;;;3.27;2.50;;;;;;;10.35;nan;-24106.06;4976120;28;20264;-67
2023/04/14 04:17:19;;;;;;;3.00;2.03;;;;;;;10.25;nan;-24103.22;4976010;28;20253;-68
2023/04/14 04:19:46;;;;;;;1.57;1.27;;;;;;;10.54;nan;-24111.56;4975766;28;20168;-67
2023/04/14 04:22:16;;;;;;;2.30;1.90;;;;;;;10.67;nan;-24114.94;4975862;28;20594;-66
2023/04/14 04:24:44;;;;;;;1.90;1.70;;;;;;;10.91;nan;-24121.84;4976139;28;20654;-66
2023/04/14 04:27:09;;;;;;;2.33;1.65;;;;;;;11.24;nan;-24131.03;4975683;28;20177;-67
2023/04/14 04:29:37;;;;;;;7.18;2.10;;;;;;;11.66;nan;-24142.56;4975571;28;20184;-67
2023/04/14 04:32:04;;;;;;;1.90;1.80;;;;;;;12.49;nan;-24165.66;4974276;28;20197;-68
2023/04/14 04:34:31;;;;;;;2.40;2.08;;;;;;;12.46;nan;-24164.97;4975035;28;20232;-68
2023/04/14 04:36:59;;;;;;;11.27;2.05;;;;;;;12.99;nan;-24179.72;4973995;28;20169;-67
2023/04/14 04:39:25;;;;;;;1.65;1.52;;;;;;;12.51;nan;-24166.22;4975291;28;20189;-67
2023/04/14 04:42:01;;;;;;;2.00;1.73;;;;;;;12.71;nan;-24172.00;4975556;28;20208;-67
2023/04/14 04:44:27;;;;;;;2.55;2.10;;;;;;;12.94;nan;-24178.19;4975217;28;20162;-67
2023/04/14 04:46:54;;;;;;;2.15;1.70;;;;;;;13.19;nan;-24185.34;4975074;28;20221;-67
2023/04/14 04:49:21;;;;;;;2.80;2.15;;;;;;;13.24;nan;-24186.63;4974401;28;20593;-67
2023/04/14 04:51:47;;;;;;;1.60;1.50;;;;;;;12.85;nan;-24175.78;4975358;28;20601;-66
2023/04/14 04:54:13;;;;;;;2.42;2.08;;;;;;;12.67;nan;-24170.88;4975467;28;20557;-67
2023/04/14 04:56:38;;;;;;;2.97;2.20;;;;;;;12.29;nan;-24160.31;4975099;28;20177;-68
2023/04/14 04:59:04;;;;;;;2.28;1.90;;;;;;;12.31;nan;-24160.75;4975162;28;20595;-66
2023/04/14 05:01:29;;;;;;;2.20;1.80;;;;;;;12.47;nan;-24165.09;4974900;28;20185;-67
2023/04/14 05:03:55;;;;;;;3.17;2.00;;;;;;;12.64;nan;-24170.03;4979897;28;20177;-67
2023/04/14 05:06:21;;;;;;;2.70;2.10;;;;;;;12.57;nan;-24168.06;4975023;28;20189;-67
2023/04/14 05:08:46;;;;;;;3.78;2.28;;;;;;;12.88;nan;-24176.50;4974748;28;20166;-67
2023/04/14 05:11:12;;;;;;;2.08;1.88;;;;;;;12.73;nan;-24172.56;4974891;28;20181;-67
2023/04/14 05:13:37;;;;;;;2.58;2.03;;;;;;;12.87;nan;-24176.34;4974629;28;20204;-67
2023/04/14 05:16:07;;;;;;;2.35;1.80;;;;;;;12.72;nan;-24172.13;4974557;28;20181;-67
2023/04/14 05:18:33;;;;;;;2.17;1.95;;;;;;;12.74;nan;-24172.69;4975098;28;20185;-66
2023/04/14 05:21:07;;;;;;;3.92;2.20;;;;;;;12.88;nan;-24176.63;4974994;28;20162;-67
2023/04/14 05:23:35;;;;;;;3.30;1.80;;;;;;;12.27;nan;-24159.75;4974607;28;20679;-66
2023/04/14 05:26:01;;;;;;;2.60;1.70;;;;;;;12.32;nan;-24161.16;4974598;28;20624;-67
2023/04/14 05:28:26;;;;;;;3.60;2.08;;;;;;;12.54;nan;-24167.06;4974182;28;20239;-67
2023/04/14 05:30:52;;;;;;;2.78;2.03;;;;;;;11.99;nan;-24151.88;4974211;28;20269;-68
2023/04/14 05:33:18;;;;;;;3.25;2.10;;;;;;;12.46;nan;-24164.97;4974703;28;20211;-68
2023/04/14 05:35:43;;;;;;;1.83;1.70;;;;;;;12.52;nan;-24166.50;4974400;28;20177;-68
2023/04/14 05:38:09;;;;;;;2.92;1.67;;;;;;;12.37;nan;-24162.44;4974302;28;20260;-67
2023/04/14 05:40:36;;;;;;;3.83;2.75;;;;;;;12.16;nan;-24156.53;4974197;28;20239;-68
2023/04/14 05:43:01;;;;;;;4.10;1.85;;;;;;;12.38;nan;-24162.84;4973934;28;20188;-67
2023/04/14 05:45:29;;;;;;;7.25;2.17;;;;;;;12.18;nan;-24157.22;4974433;28;20169;-70
2023/04/14 05:47:55;;;;;;;12.02;1.98;;;;;;;12.15;nan;-24156.25;4972608;28;20225;-69
2023/04/14 05:50:23;;;;;;;3.75;2.15;;;;;;;12.15;nan;-24156.25;4974169;28;20240;-68
2023/04/14 05:52:49;;;;;;;1.75;1.65;;;;;;;11.91;nan;-24149.75;4974269;28;20203;-68
2023/04/14 05:55:15;;;;;;;2.40;1.85;;;;;;;12.27;nan;-24159.75;4973950;28;20176;-68
2023/04/14 05:57:41;;;;;;;2.22;1.77;;;;;;;12.55;nan;-24167.34;4973652;28;20602;-67
2023/04/14 06:00:07;;;;;;;1.50;1.40;;;;;;;12.50;nan;-24166.09;4973815;28;20285;-66
2023/04/14 06:02:32;;;;;;;2.47;1.92;;;;;;;12.18;nan;-24157.22;4975639;28;20177;-66
2023/04/14 06:05:01;;;;;;;2.97;1.88;;;;;;;12.18;nan;-24157.22;4976714;28;20260;-69
2023/04/14 06:07:27;;;;;;;1.58;1.48;;;;;;;12.24;nan;-24158.91;4974260;28;20197;-67
2023/04/14 06:09:53;;;;;;;1.92;1.75;;;;;;;12.71;nan;-24172.00;4973705;28;20667;-69
2023/04/14 06:12:19;;;;;;;3.00;1.98;;;;;;;12.50;nan;-24165.94;4973609;28;20205;-66
2023/04/14 06:14:44;;;;;;;1.67;1.40;;;;;;;12.52;nan;-24166.50;4973758;28;20197;-68
2023/04/14 06:17:10;;;;;;;2.70;1.98;;;;;;;12.65;nan;-24170.16;4973566;28;20208;-67
2023/04/14 06:19:35;;;;;;;2.03;1.67;;;;;;;12.94;nan;-24178.31;4973657;28;20180;-68
2023/04/14 06:22:01;;;;;;;2.40;2.08;;;;;;;13.22;nan;-24186.06;4973491;28;20181;-67
2023/04/14 06:24:26;;;;;;;1.98;1.77;;;;;;;13.13;nan;-24183.66;4973426;28;20181;-67
2023/04/14 06:26:51;;;;;;;3.22;1.85;;;;;;;13.08;nan;-24182.25;4973353;28;20177;-66
2023/04/14 06:29:17;;;;;;;4.10;1.95;;;;;;;12.91;nan;-24177.34;4974087;28;20749;-67
2023/04/14 06:31:43;;;;;;;4.22;2.45;;;;;;;13.34;nan;-24189.28;4973242;28;20315;-69
2023/04/14 06:34:08;;;;;;;1.70;1.60;;;;;;;13.27;nan;-24187.59;4973998;28;20204;-68
2023/04/14 06:36:34;;;;;;;2.47;1.85;;;;;;;13.12;nan;-24183.25;4973613;28;20546;-68
2023/04/14 06:38:59;;;;;;;1.85;1.73;;;;;;;13.64;nan;-24197.84;4973118;28;20174;-68
2023/04/14 06:41:25;;;;;;;2.47;2.00;;;;;;;13.42;nan;-24191.53;4973392;28;20641;-69
2023/04/14 06:43:50;;;;;;;2.42;1.80;;;;;;;13.73;nan;-24200.38;4973155;28;20174;-66
2023/04/14 06:46:16;;;;;;;2.60;1.70;;;;;;;13.62;nan;-24197.28;4973101;28;20175;-68
2023/04/14 06:48:42;;;;;;;2.40;1.40;;;;;;;14.00;nan;-24207.81;4973559;28;20692;-67
2023/04/14 06:51:11;;;;;;;3.20;1.90;;;;;;;13.96;nan;-24206.69;4973439;28;20181;-66
2023/04/14 06:53:37;;;;;;;3.83;2.55;;;;;;;13.64;nan;-24197.84;4973055;28;20212;-68
2023/04/14 06:56:02;;;;;;;2.47;1.85;;;;;;;14.28;nan;-24215.53;4972594;28;20191;-67
2023/04/14 06:58:28;;;;;;;1.95;1.63;;;;;;;14.39;nan;-24218.47;4973382;28;20533;-68
2023/04/14 07:00:55;;;;;;;2.95;2.40;;;;;;;13.97;nan;-24206.84;4972946;28;20533;-68
2023/04/14 07:03:20;;;;;;;1.73;1.63;;;;;;;14.26;nan;-24214.97;4977425;28;20260;-67
2023/04/14 07:05:46;;;;;;;4.07;2.33;;;;;;;14.29;nan;-24215.81;4971880;28;20205;-68
2023/04/14 07:08:11;;;;;;;2.60;2.00;;;;;;;15.25;nan;-24242.44;4971490;28;20209;-68
2023/04/14 07:10:36;;;;;;;2.78;2.30;;;;;;;15.49;nan;-24249.16;4973514;28;20181;-69
2023/04/14 07:13:02;;;;;;;3.53;2.28;;;;;;;16.00;nan;-24263.03;4975681;28;20278;-67
2023/04/14 07:15:28;;;;;;;2.90;2.17;;;;;;;15.73;nan;-24255.63;4977203;28;20169;-69
2023/04/14 07:17:54;;;;;;;3.53;2.45;;;;;;;15.70;nan;-24254.78;4975765;28;20177;-68
2023/04/14 07:20:19;;;;;;;2.00;1.80;;;;;;;16.19;nan;-24268.47;4976882;28;20762;-66
2023/04/14 07:22:45;;;;;;;3.65;2.42;;;;;;;16.16;nan;-24267.50;4976431;28;20181;-67
2023/04/14 07:25:10;;;;;;;3.10;1.85;;;;;;;15.98;nan;-24262.47;4976335;28;20177;-68
2023/04/14 07:27:36;;;;;;;3.60;2.47;;;;;;;16.39;nan;-24273.94;4976542;28;20177;-70
2023/04/14 07:30:02;;;;;;;1.92;1.70;;;;;;;16.02;nan;-24263.59;4980939;28;20188;-67
2023/04/14 07:32:28;;;;;;;2.08;1.60;;;;;;;15.82;nan;-24258.28;4986504;28;20259;-68
2023/04/14 07:34:53;;;;;;;4.40;2.38;;;;;;;15.65;nan;-24253.50;4988250;28;20268;-66
2023/04/14 07:37:19;;;;;;;2.65;2.45;;;;;;;15.99;nan;-24262.75;4984719;28;20193;-68
2023/04/14 07:39:45;;;;;;;2.35;1.90;;;;;;;15.61;nan;-24252.41;4984954;28;20180;-70
2023/04/14 07:42:11;;;;;;;2.90;2.20;;;;;;;16.13;nan;-24266.66;4995753;28;20184;-67
2023/04/14 07:44:37;;;;;;;6.07;2.35;;;;;;;16.43;nan;-24275.06;4988256;28;20241;-68
2023/04/14 07:47:02;;;;;;;2.30;2.10;;;;;;;16.03;nan;-24263.88;4979680;28;20247;-66
2023/04/14 07:49:28;;;;;;;2.47;2.10;;;;;;;16.02;nan;-24263.59;4989196;28;20271;-68
2023/04/14 07:51:53;;;;;;;2.63;2.22;;;;;;;15.94;nan;-24261.34;4983796;28;20597;-67
2023/04/14 07:54:19;;;;;;;2.30;1.83;;;;;;;15.81;nan;-24257.84;4980432;28;20173;-67
2023/04/14 07:56:44;;;;;;;3.33;2.33;;;;;;;15.87;nan;-24259.53;4992553;28;20189;-67
2023/04/14 07:59:10;;;;;;;3.22;2.53;;;;;;;15.57;nan;-24251.13;4995275;28;20767;-67
2023/04/14 08:01:36;;;;;;;4.78;2.65;;;;;;;15.35;nan;-24245.13;4992934;28;20181;-68
2023/04/14 08:04:01;;;;;;;2.25;2.05;;;;;;;15.45;nan;-24247.91;4978747;28;20191;-69
2023/04/14 08:06:27;;;;;;;3.25;2.35;;;;;;;15.01;nan;-24235.88;4994633;28;20259;-68
2023/04/14 08:08:52;;;;;;;2.88;2.10;;;;;;;15.29;nan;-24243.56;4994177;28;20276;-69
2023/04/14 08:11:18;;;;;;;3.50;2.00;;;;;;;15.58;nan;-24251.56;4994971;28;20173;-66
2023/04/14 08:13:43;;;;;;;3.63;2.70;;;;;;;15.57;nan;-24251.28;4989632;28;20586;-67
2023/04/14 08:16:09;;;;;;;2.97;2.30;;;;;;;15.76;nan;-24256.59;4984359;28;20177;-66
2023/04/14 08:18:35;;;;;;;2.92;2.28;;;;;;;15.83;nan;-24258.56;4988218;28;20250;-68
2023/04/14 08:21:01;;;;;;;4.63;2.67;;;;;;;15.97;nan;-24262.19;4995367;28;20187;-67
2023/04/14 08:23:26;;;;;;;3.08;2.17;;;;;;;15.57;nan;-24251.28;4993984;28;20272;-68
2023/04/14 08:25:52;;;;;;;2.75;2.10;;;;;;;15.82;nan;-24258.13;4995294;28;20176;-68
2023/04/14 08:28:17;;;;;;;3.60;2.10;;;;;;;16.49;nan;-24276.72;4995203;28;20165;-69
2023/04/14 08:30:42;;;;;;;4.38;2.55;;;;;;;16.18;nan;-24268.06;4995020;28;20533;-69
2023/04/14 08:33:08;;;;;;;5.38;2.58;;;;;;;15.78;nan;-24257.16;4995185;28;20244;-68
2023/04/14 08:35:34;;;;;;;4.10;2.08;;;;;;;16.31;nan;-24271.69;4995222;28;20165;-68
2023/04/14 08:38:00;;;;;;;3.42;2.38;;;;;;;16.44;nan;-24275.34;4994588;28;20569;-67
2023/04/14 08:40:35;;;;;;;3.45;2.40;;;;;;;16.46;nan;-24275.88;4994674;28;20671;-66
2023/04/14 08:43:01;;;;;;;2.67;2.33;;;;;;;15.90;nan;-24260.50;4994800;28;20288;-66
2023/04/14 08:45:29;;;;;;;2.75;1.92;;;;;;;16.17;nan;-24267.94;4994786;28;20646;-68
2023/04/14 08:47:57;;;;;;;3.92;2.72;;;;;;;16.72;nan;-24283.16;4994908;28;20220;-67
2023/04/14 08:50:32;;;;;;;3.92;2.38;;;;;;;16.76;nan;-24284.28;4994648;28;20656;-70
2023/04/14 08:53:02;;;;;;;2.90;2.20;;;;;;;16.50;nan;-24276.88;4994848;28;20211;-68
2023/04/14 08:55:29;;;;;;;3.65;2.53;;;;;;;16.75;nan;-24283.88;4994836;28;20186;-67
2023/04/14 08:57:55;;;;;;;5.13;3.03;;;;;;;16.62;nan;-24280.22;4994380;28;20231;-68
2023/04/14 09:00:21;;;;;;;2.83;2.28;;;;;;;16.93;nan;-24288.75;4996856;28;20176;-68
2023/04/14 09:02:47;;;;;;;2.55;2.15;;;;;;;16.63;nan;-24280.66;4994586;28;20724;-66
2023/04/14 09:05:14;;;;;;;2.58;1.90;;;;;;;16.32;nan;-24271.97;4994230;28;20208;-68
2023/04/14 09:07:41;;;;;;;4.55;2.63;;;;;;;16.06;nan;-24264.72;4994634;28;20536;-68
2023/04/14 09:10:08;;;;;;;4.43;2.45;;;;;;;16.66;nan;-24281.34;4994174;28;20188;-67
2023/04/14 09:12:35;;;;;;;3.35;2.13;;;;;;;16.68;nan;-24281.91;4994229;28;20188;-68
2023/04/14 09:15:02;;;;;;;2.85;1.95;;;;;;;16.71;nan;-24282.88;4994287;28;20264;-68
2023/04/14 09:17:29;;;;;;;3.92;2.40;;;;;;;16.88;nan;-24287.34;4994772;28;20179;-68
2023/04/14 09:19:54;;;;;;;2.47;2.13;;;;;;;16.84;nan;-24286.38;4993960;28;20204;-67
2023/04/14 09:22:20;;;;;;;3.80;2.42;;;;;;;16.91;nan;-24288.19;4994499;28;20187;-66
2023/04/14 09:24:46;;;;;;;4.18;2.30;;;;;;;17.61;nan;-24307.59;4994285;28;20691;-67
2023/04/14 09:27:11;;;;;;;4.63;2.42;;;;;;;18.11;nan;-24321.41;4994231;28;20655;-67
2023/04/14 09:29:37;;;;;;;3.25;1.65;;;;;;;18.47;nan;-24331.44;4994195;28;20196;-67
2023/04/14 09:32:06;;;;;;;3.13;2.42;;;;;;;18.85;nan;-24341.88;4994033;28;20224;-67
2023/04/14 09:34:32;;;;;;;3.15;2.22;;;;;;;18.67;nan;-24336.88;4992568;28;20580;-69
2023/04/14 09:37:05;;;;;;;2.58;2.00;;;;;;;18.32;nan;-24327.25;4993794;28;20177;-69
2023/04/14 09:39:32;;;;;;;3.75;2.20;;;;;;;18.05;nan;-24319.88;4993357;28;20687;-68
2023/04/14 09:41:58;;;;;;;3.53;2.70;;;;;;;18.45;nan;-24330.75;4993632;28;20691;-68
2023/04/14 09:44:23;;;;;;;4.72;2.35;;;;;;;17.98;nan;-24317.78;4993469;28;20257;-68
2023/04/14 09:47:06;;;;;;;5.35;3.42;;;;;;;17.64;nan;-24308.44;4991856;28;20411;-68
2023/04/14 09:49:32;;;;;;;4.60;2.38;;;;;;;18.19;nan;-24323.50;4993215;28;20239;-66
2023/04/14 09:52:07;;;;;;;2.67;2.03;;;;;;;18.26;nan;-24325.59;4993386;28;20200;-68
2023/04/14 09:54:32;;;;;;;6.88;2.38;;;;;;;18.62;nan;-24335.34;4993217;28;20198;-69
2023/04/14 09:56:58;;;;;;;3.60;2.42;;;;;;;18.46;nan;-24331.16;4993626;28;20181;-67
2023/04/14 09:59:33;;;;;;;2.60;2.10;;;;;;;18.33;nan;-24327.41;4997903;28;20164;-68
2023/04/14 10:02:02;;;;;;;4.35;2.50;;;;;;;18.35;nan;-24328.09;4993715;28;20242;-68
2023/04/14 10:04:28;;;;;;;4.90;2.17;;;;;;;19.02;nan;-24346.47;4993524;28;20180;-70
2023/04/14 10:06:55;;;;;;;4.53;2.53;;;;;;;19.68;nan;-24364.69;4993464;28;20236;-69
2023/04/14 10:09:21;;;;;;;2.95;1.80;;;;;;;19.30;nan;-24354.13;4992773;28;20565;-69
2023/04/14 10:12:05;;;;;;;3.50;2.28;;;;;;;19.55;nan;-24361.09;4993028;28;20176;-68
2023/04/14 10:14:32;;;;;;;3.28;2.50;;;;;;;19.28;nan;-24353.72;4993486;28;20754;-68
2023/04/14 10:16:58;;;;;;;2.30;1.95;;;;;;;18.77;nan;-24339.53;4992992;28;20572;-68
2023/04/14 10:19:24;;;;;;;3.97;2.05;;;;;;;19.00;nan;-24345.91;4992597;28;20264;-67
2023/04/14 10:21:51;;;;;;;2.53;1.70;;;;;;;19.15;nan;-24349.94;4993278;28;20596;-68
2023/04/14 10:24:18;;;;;;;2.67;1.90;;;;;;;19.24;nan;-24352.47;4992826;28;20247;-67
2023/04/14 10:26:46;;;;;;;3.28;1.73;;;;;;;19.07;nan;-24347.88;4992720;28;20200;-67
2023/04/14 10:29:11;;;;;;;3.08;1.70;;;;;;;18.94;nan;-24344.38;4992802;28;20266;-68
2023/04/14 10:31:41;;;;;;;3.13;2.20;;;;;;;19.54;nan;-24360.66;4992805;28;20183;-68
2023/04/14 10:34:16;;;;;;;2.58;1.70;;;;;;;19.72;nan;-24365.69;4992941;28;20164;-69
2023/04/14 10:36:42;;;;;;;5.43;1.73;;;;;;;19.44;nan;-24357.88;4992861;28;20179;-68
2023/04/14 10:39:10;;;;;;;1.75;1.55;;;;;;;19.76;nan;-24366.78;4992360;28;20168;-70
2023/04/14 10:41:41;;;;;;;2.60;2.00;;;;;;;19.33;nan;-24354.97;4992829;28;20181;-68
2023/04/14 10:44:20;;;;;;;2.17;1.67;;;;;;;19.55;nan;-24360.94;4992609;28;20165;-68
2023/04/14 10:46:47;;;;;;;2.78;1.98;;;;;;;19.69;nan;-24364.84;4992155;28;20282;-70
2023/04/14 10:49:13;;;;;;;2.00;1.75;;;;;;;19.97;nan;-24372.50;4992689;28;20184;-68
2023/04/14 10:51:39;;;;;;;1.50;1.40;;;;;;;20.42;nan;-24384.84;4992091;28;20184;-68
2023/04/14 10:54:14;;;;;;;1.77;1.50;;;;;;;20.98;nan;-24400.25;4992794;28;20215;-68
2023/04/14 10:56:39;;;;;;;1.95;1.70;;;;;;;20.86;nan;-24397.06;4992552;28;20176;-68
2023/04/14 10:59:04;;;;;;;3.03;1.88;;;;;;;20.58;nan;-24389.28;4997648;28;20589;-68
2023/04/14 11:01:31;;;;;;;2.97;1.90;;;;;;;20.78;nan;-24394.84;4993077;28;20207;-67
2023/04/14 11:04:16;;;;;;;2.65;1.42;;;;;;;20.66;nan;-24391.50;4992461;28;20284;-69
2023/04/14 11:06:51;;;;;;;3.72;2.15;;;;;;;20.71;nan;-24392.91;4989851;28;20204;-70
2023/04/14 11:09:32;;;;;;;2.92;2.00;;;;;;;20.50;nan;-24387.06;4992393;28;20161;-69
2023/04/14 11:12:20;;;;;;;2.00;1.77;;;;;;;20.57;nan;-24389.16;4991974;28;20191;-67
2023/04/14 11:14:46;;;;;;;4.32;2.28;;;;;;;20.43;nan;-24385.28;4991944;28;20644;-69
2023/04/14 11:17:19;;;;;;;1.95;1.75;;;;;;;20.42;nan;-24384.84;4992024;28;20183;-69
2023/04/14 11:19:44;;;;;;;1.77;1.50;;;;;;;20.70;nan;-24392.75;4992099;28;20165;-69
2023/04/14 11:22:10;;;;;;;2.10;1.80;;;;;;;20.32;nan;-24382.06;4992136;28;20169;-70
2023/04/14 11:24:36;;;;;;;2.88;2.00;;;;;;;20.48;nan;-24386.53;4990685;28;20201;-69
2023/04/14 11:27:01;;;;;;;3.20;1.83;;;;;;;20.82;nan;-24395.94;4991930;28;20226;-68
2023/04/14 11:29:26;;;;;;;1.92;1.50;;;;;;;20.67;nan;-24391.78;4992428;28;20557;-69
2023/04/14 11:32:05;;;;;;;3.90;1.98;;;;;;;20.85;nan;-24396.66;4992231;28;20652;-69
2023/04/14 11:34:32;;;;;;;2.65;1.90;;;;;;;21.17;nan;-24405.38;4992342;28;20289;-67
2023/04/14 11:37:00;;;;;;;2.28;1.65;;;;;;;21.21;nan;-24406.50;4992297;28;20187;-69
2023/04/14 11:39:27;;;;;;;2.55;1.58;;;;;;;21.08;nan;-24403.16;4991667;28;20180;-68
2023/04/14 11:41:53;;;;;;;2.25;1.80;;;;;;;21.14;nan;-24404.69;4992333;28;20177;-67
2023/04/14 11:44:19;;;;;;;2.95;1.95;;;;;;;21.06;nan;-24402.59;4992323;28;20204;-68